Time,TemperatureF,DewpointF,PressureIn,WindDirection,WindDirectionDegrees,WindSpeedMPH,WindSpeedGustMPH,Humidity,HourlyPrecipIn,Conditions,Clouds,dailyrainin,SolarRadiationWatts/m^2,SoftwareType,DateUTC
2013-09-08 00:23:00,78.0,35.0,29.95,SW,234,11.0,21.0,21,0.00,,,0.00,0.000000,,2013-09-08 07:23:00,
2013-09-08 00:32:00,78.0,35.0,29.95,SW,234,11.0,21.0,21,0.00,,,0.00,0.000000,,2013-09-08 07:32:00,
2013-09-08 00:42:00,78.0,35.0,29.95,SW,234,11.0,21.0,21,0.00,,,0.00,0.000000,,2013-09-08 07:42:00,
2013-09-08 00:52:00,78.0,35.0,29.95,SW,234,11.0,21.0,21,0.00,,,0.00,0.000000,,2013-09-08 07:52:00,
2013-09-08 01:22:00,75.0,35.0,29.95,SW,234,8.0,18.0,23,0.00,,,0.00,0.000000,,2013-09-08 08:22:00,
2013-09-08 01:32:00,75.0,35.0,29.95,SW,234,8.0,18.0,23,0.00,,,0.00,0.000000,,2013-09-08 08:32:00,
2013-09-08 01:42:00,75.0,35.0,29.95,SW,234,8.0,18.0,23,0.00,,,0.00,0.000000,,2013-09-08 08:42:00,
2013-09-08 01:52:00,75.0,35.0,29.95,SW,234,8.0,18.0,23,0.00,,,0.00,0.000000,,2013-09-08 08:52:00,
2013-09-08 02:22:00,80.0,37.0,29.94,West,266,10.0,15.0,21,0.00,,,0.00,0.000000,,2013-09-08 09:22:00,
2013-09-08 02:33:00,80.0,37.0,29.94,West,266,10.0,15.0,21,0.00,,,0.00,0.000000,,2013-09-08 09:33:00,
2013-09-08 02:43:00,80.0,37.0,29.94,West,266,10.0,15.0,21,0.00,,,0.00,0.000000,,2013-09-08 09:43:00,
2013-09-08 02:53:00,80.0,37.0,29.94,West,266,10.0,15.0,21,0.00,,,0.00,0.000000,,2013-09-08 09:53:00,
2013-09-08 03:23:00,78.0,35.0,29.93,West,268,11.0,19.0,21,0.00,,,0.00,0.000000,,2013-09-08 10:23:00,
2013-09-08 03:33:00,78.0,35.0,29.93,West,268,11.0,19.0,21,0.00,,,0.00,0.000000,,2013-09-08 10:33:00,
2013-09-08 03:42:00,78.0,35.0,29.93,West,268,11.0,19.0,21,0.00,,,0.00,0.000000,,2013-09-08 10:42:00,
2013-09-08 03:53:00,78.0,35.0,29.93,West,268,11.0,19.0,21,0.00,,,0.00,0.000000,,2013-09-08 10:53:00,
2013-09-08 04:21:00,73.0,34.0,29.93,SW,235,7.0,18.0,24,0.00,,,0.00,0.000000,,2013-09-08 11:21:00,
2013-09-08 04:33:00,73.0,34.0,29.93,SW,235,7.0,18.0,24,0.00,,,0.00,0.000000,,2013-09-08 11:33:00,
2013-09-08 04:42:00,73.0,34.0,29.93,SW,235,7.0,18.0,24,0.00,,,0.00,0.000000,,2013-09-08 11:42:00,
2013-09-08 04:52:00,73.0,34.0,29.93,SW,235,7.0,18.0,24,0.00,,,0.00,0.000000,,2013-09-08 11:52:00,
2013-09-08 05:22:00,73.0,35.0,29.93,WSW,257,4.0,11.0,25,0.00,,,0.00,0.000000,,2013-09-08 12:22:00,
2013-09-08 05:32:00,73.0,35.0,29.93,WSW,257,4.0,11.0,25,0.00,,,0.00,0.000000,,2013-09-08 12:32:00,
2013-09-08 05:42:00,73.0,35.0,29.93,WSW,257,4.0,11.0,25,0.00,,,0.00,0.000000,,2013-09-08 12:42:00,
2013-09-08 05:52:00,73.0,35.0,29.93,WSW,257,4.0,11.0,25,0.00,,,0.00,0.000000,,2013-09-08 12:52:00,
2013-09-08 06:22:00,72.0,35.0,29.93,West,261,5.0,12.0,26,0.00,,,0.00,0.000000,,2013-09-08 13:22:00,
2013-09-08 06:32:00,72.0,35.0,29.93,West,261,5.0,12.0,26,0.00,,,0.00,0.000000,,2013-09-08 13:32:00,
2013-09-08 06:42:00,72.0,35.0,29.93,West,261,5.0,12.0,26,0.00,,,0.00,0.000000,,2013-09-08 13:42:00,
2013-09-08 06:52:00,72.0,35.0,29.93,West,261,5.0,12.0,26,0.00,,,0.00,0.000000,,2013-09-08 13:52:00,
2013-09-08 07:22:00,72.0,36.0,29.94,West,279,4.0,10.0,27,0.00,,,0.00,5.000000,,2013-09-08 14:22:00,
2013-09-08 07:31:00,72.0,36.0,29.94,West,279,4.0,10.0,27,0.00,,,0.00,5.000000,,2013-09-08 14:31:00,
2013-09-08 07:42:00,72.0,36.0,29.94,West,279,4.0,10.0,27,0.00,,,0.00,5.000000,,2013-09-08 14:42:00,
2013-09-08 07:52:00,72.0,36.0,29.94,West,279,4.0,10.0,27,0.00,,,0.00,5.000000,,2013-09-08 14:52:00,
2013-09-08 11:42:00,96.0,31.0,29.95,SSE,159,3.0,10.0,10,-99.99,,,0.00,800.000000,,2013-09-08 18:42:00,
2013-09-08 11:52:00,96.0,31.0,29.95,SSE,159,3.0,10.0,10,-99.99,,,0.00,800.000000,,2013-09-08 18:52:00,
2013-09-08 12:22:00,96.0,31.0,29.93,NE,56,7.0,13.0,10,0.00,,,0.00,936.000000,,2013-09-08 19:22:00,
2013-09-08 12:32:00,96.0,31.0,29.93,NE,56,7.0,13.0,10,0.00,,,0.00,936.000000,,2013-09-08 19:32:00,
2013-09-08 12:42:00,96.0,31.0,29.93,NE,56,7.0,13.0,10,0.00,,,0.00,936.000000,,2013-09-08 19:42:00,
2013-09-08 12:52:00,96.0,31.0,29.93,NE,56,7.0,13.0,10,0.00,,,0.00,936.000000,,2013-09-08 19:52:00,
2013-09-08 13:22:00,98.0,30.0,29.91,SE,125,5.0,19.0,9,0.00,,,0.00,1005.000000,,2013-09-08 20:22:00,
2013-09-08 13:32:00,98.0,30.0,29.91,SE,125,5.0,19.0,9,0.00,,,0.00,1005.000000,,2013-09-08 20:32:00,
2013-09-08 13:42:00,98.0,30.0,29.91,SE,125,5.0,19.0,9,0.00,,,0.00,1005.000000,,2013-09-08 20:42:00,
2013-09-08 13:53:00,98.0,30.0,29.91,SE,125,5.0,19.0,9,0.00,,,0.00,1005.000000,,2013-09-08 20:53:00,
2013-09-08 14:22:00,98.0,30.0,29.89,NNE,32,7.0,19.0,9,0.00,,,0.00,1001.000000,,2013-09-08 21:22:00,
2013-09-08 14:34:00,98.0,30.0,29.89,NNE,32,7.0,19.0,9,0.00,,,0.00,1001.000000,,2013-09-08 21:34:00,
2013-09-08 14:43:00,98.0,30.0,29.89,NNE,32,7.0,19.0,9,0.00,,,0.00,1001.000000,,2013-09-08 21:43:00,
2013-09-08 14:54:00,98.0,30.0,29.89,NNE,32,7.0,19.0,9,0.00,,,0.00,1001.000000,,2013-09-08 21:54:00,
2013-09-08 15:24:00,101.0,34.0,29.86,SW,214,8.0,17.0,10,0.00,,,0.00,924.000000,,2013-09-08 22:24:00,
2013-09-08 15:33:00,101.0,34.0,29.86,SW,214,8.0,17.0,10,0.00,,,0.00,924.000000,,2013-09-08 22:33:00,
2013-09-08 15:43:00,101.0,34.0,29.86,SW,214,8.0,17.0,10,0.00,,,0.00,924.000000,,2013-09-08 22:43:00,
2013-09-08 15:53:00,101.0,34.0,29.86,SW,214,8.0,17.0,10,0.00,,,0.00,924.000000,,2013-09-08 22:53:00,
2013-09-08 16:22:00,98.0,37.0,29.85,SW,214,15.0,25.0,12,0.00,,,0.00,779.000000,,2013-09-08 23:22:00,
2013-09-08 16:34:00,98.0,37.0,29.85,SW,214,15.0,25.0,12,0.00,,,0.00,779.000000,,2013-09-08 23:34:00,
2013-09-08 16:42:00,98.0,37.0,29.85,SW,214,15.0,25.0,12,0.00,,,0.00,779.000000,,2013-09-08 23:42:00,
2013-09-08 16:52:00,98.0,37.0,29.85,SW,214,15.0,25.0,12,0.00,,,0.00,779.000000,,2013-09-08 23:52:00,
2013-09-08 17:22:00,95.0,36.0,29.84,SSW,211,17.0,25.0,13,0.00,,,0.00,586.000000,,2013-09-09 00:22:00,
2013-09-08 17:32:00,95.0,36.0,29.84,SSW,211,17.0,25.0,13,0.00,,,0.00,586.000000,,2013-09-09 00:32:00,
2013-09-08 17:42:00,95.0,36.0,29.84,SSW,211,17.0,25.0,13,0.00,,,0.00,586.000000,,2013-09-09 00:42:00,
2013-09-08 17:52:00,95.0,36.0,29.84,SSW,211,17.0,25.0,13,0.00,,,0.00,586.000000,,2013-09-09 00:52:00,
2013-09-08 18:21:00,90.0,36.0,29.85,SW,218,17.0,25.0,15,0.00,,,0.00,360.000000,,2013-09-09 01:21:00,
2013-09-08 18:32:00,90.0,36.0,29.85,SW,218,17.0,25.0,15,0.00,,,0.00,360.000000,,2013-09-09 01:32:00,
2013-09-08 18:42:00,90.0,36.0,29.85,SW,218,17.0,25.0,15,0.00,,,0.00,360.000000,,2013-09-09 01:42:00,
2013-09-08 18:52:00,90.0,36.0,29.85,SW,218,17.0,25.0,15,0.00,,,0.00,360.000000,,2013-09-09 01:52:00,
2013-09-08 19:22:00,85.0,38.0,29.85,WSW,250,8.0,25.0,19,0.00,,,0.00,113.000000,,2013-09-09 02:22:00,
2013-09-08 19:32:00,85.0,38.0,29.85,WSW,250,8.0,25.0,19,0.00,,,0.00,113.000000,,2013-09-09 02:32:00,
2013-09-08 19:42:00,85.0,38.0,29.85,WSW,250,8.0,25.0,19,0.00,,,0.00,113.000000,,2013-09-09 02:42:00,
2013-09-08 19:52:00,85.0,38.0,29.85,WSW,250,8.0,25.0,19,0.00,,,0.00,113.000000,,2013-09-09 02:52:00,
2013-09-08 20:22:00,82.0,36.0,29.86,WSW,248,8.0,20.0,19,0.00,,,0.00,2.000000,,2013-09-09 03:22:00,
2013-09-08 20:34:00,82.0,36.0,29.86,WSW,248,8.0,20.0,19,0.00,,,0.00,2.000000,,2013-09-09 03:34:00,
2013-09-08 20:44:00,82.0,36.0,29.86,WSW,248,8.0,20.0,19,0.00,,,0.00,2.000000,,2013-09-09 03:44:00,
2013-09-08 20:55:00,82.0,36.0,29.86,WSW,248,8.0,20.0,19,0.00,,,0.00,2.000000,,2013-09-09 03:55:00,
2013-09-08 21:43:00,80.0,33.0,29.87,West,274,12.0,16.0,18,0.00,,,0.00,0.000000,,2013-09-09 04:43:00,
2013-09-08 21:54:00,80.0,33.0,29.87,West,274,12.0,16.0,18,0.00,,,0.00,0.000000,,2013-09-09 04:54:00,
2013-09-08 22:23:00,80.0,37.0,29.90,WNW,298,10.0,20.0,21,0.00,,,-99.99,0.000000,,2013-09-09 05:23:00,
2013-09-08 22:34:00,80.0,37.0,29.90,WNW,298,10.0,20.0,21,0.00,,,-99.99,0.000000,,2013-09-09 05:34:00,
2013-09-08 22:43:00,80.0,37.0,29.90,WNW,298,10.0,20.0,21,0.00,,,-99.99,0.000000,,2013-09-09 05:43:00,
2013-09-08 22:52:00,80.0,37.0,29.90,WNW,298,10.0,20.0,21,0.00,,,-99.99,0.000000,,2013-09-09 05:52:00,
2013-09-08 23:21:00,78.0,39.0,29.92,North,349,13.0,17.0,25,0.00,,,0.00,0.000000,,2013-09-09 06:21:00,
2013-09-08 23:32:00,78.0,39.0,29.92,North,349,13.0,17.0,25,0.00,,,0.00,0.000000,,2013-09-09 06:32:00,
2013-09-08 23:42:00,78.0,39.0,29.92,North,349,13.0,17.0,25,0.00,,,0.00,0.000000,,2013-09-09 06:42:00,
2013-09-08 23:52:00,78.0,39.0,29.92,North,349,13.0,17.0,25,0.00,,,0.00,0.000000,,2013-09-09 06:52:00,